sensor_id;sensor_type;location;lat;lon;timestamp;pressure;altitude;pressure_sealevel;temperature
35582;BMP180;21687;48.900;9.188;2023-08-07T00:01:09;98230.00;;;11.30
35582;BMP180;21687;48.900;9.188;2023-08-07T00:03:35;98227.00;;;11.30
35582;BMP180;21687;48.900;9.188;2023-08-07T00:06:02;98240.00;;;11.30
35582;BMP180;21687;48.900;9.188;2023-08-07T00:08:28;98240.00;;;11.30
35582;BMP180;21687;48.900;9.188;2023-08-07T00:11:05;98233.00;;;11.20
35582;BMP180;21687;48.900;9.188;2023-08-07T00:13:31;98237.00;;;11.30
35582;BMP180;21687;48.900;9.188;2023-08-07T00:15:58;98243.00;;;11.30
35582;BMP180;21687;48.900;9.188;2023-08-07T00:18:24;98248.00;;;11.30
35582;BMP180;21687;48.900;9.188;2023-08-07T00:20:50;98241.00;;;11.30
35582;BMP180;21687;48.900;9.188;2023-08-07T00:23:17;98241.00;;;11.30
35582;BMP180;21687;48.900;9.188;2023-08-07T00:25:43;98235.00;;;11.30
35582;BMP180;21687;48.900;9.188;2023-08-07T00:28:10;98243.00;;;11.30
35582;BMP180;21687;48.900;9.188;2023-08-07T00:30:36;98240.00;;;11.30
35582;BMP180;21687;48.900;9.188;2023-08-07T00:33:02;98243.00;;;11.30
35582;BMP180;21687;48.900;9.188;2023-08-07T00:35:28;98241.00;;;11.30
35582;BMP180;21687;48.900;9.188;2023-08-07T00:37:55;98241.00;;;11.30
35582;BMP180;21687;48.900;9.188;2023-08-07T00:40:21;98255.00;;;11.40
35582;BMP180;21687;48.900;9.188;2023-08-07T00:42:47;98239.00;;;11.40
35582;BMP180;21687;48.900;9.188;2023-08-07T00:45:14;98238.00;;;11.50
35582;BMP180;21687;48.900;9.188;2023-08-07T00:47:40;98252.00;;;11.50
35582;BMP180;21687;48.900;9.188;2023-08-07T00:50:08;98262.00;;;11.50
35582;BMP180;21687;48.900;9.188;2023-08-07T00:52:34;98253.00;;;11.60
35582;BMP180;21687;48.900;9.188;2023-08-07T00:55:01;98250.00;;;11.60
35582;BMP180;21687;48.900;9.188;2023-08-07T00:57:27;98253.00;;;11.60
35582;BMP180;21687;48.900;9.188;2023-08-07T00:59:54;98248.00;;;11.60
35582;BMP180;21687;48.900;9.188;2023-08-07T01:02:20;98257.00;;;11.70
35582;BMP180;21687;48.900;9.188;2023-08-07T01:04:47;98247.00;;;11.60
35582;BMP180;21687;48.900;9.188;2023-08-07T01:07:13;98255.00;;;11.60
35582;BMP180;21687;48.900;9.188;2023-08-07T01:09:40;98253.00;;;11.60
35582;BMP180;21687;48.900;9.188;2023-08-07T01:14:51;98263.00;;;11.60
35582;BMP180;21687;48.900;9.188;2023-08-07T01:17:21;98262.00;;;11.60
35582;BMP180;21687;48.900;9.188;2023-08-07T01:19:53;98259.00;;;11.60
35582;BMP180;21687;48.900;9.188;2023-08-07T01:22:21;98249.00;;;11.60
35582;BMP180;21687;48.900;9.188;2023-08-07T01:24:49;98262.00;;;11.60
35582;BMP180;21687;48.900;9.188;2023-08-07T01:35:35;98262.00;;;11.50
35582;BMP180;21687;48.900;9.188;2023-08-07T01:38:02;98262.00;;;11.50
35582;BMP180;21687;48.900;9.188;2023-08-07T01:40:29;98266.00;;;11.50
35582;BMP180;21687;48.900;9.188;2023-08-07T01:42:56;98261.00;;;11.50
35582;BMP180;21687;48.900;9.188;2023-08-07T01:45:24;98261.00;;;11.50
35582;BMP180;21687;48.900;9.188;2023-08-07T01:47:50;98262.00;;;11.60
35582;BMP180;21687;48.900;9.188;2023-08-07T01:50:18;98265.00;;;11.60
35582;BMP180;21687;48.900;9.188;2023-08-07T01:52:45;98264.00;;;11.50
35582;BMP180;21687;48.900;9.188;2023-08-07T01:55:14;98258.00;;;11.60
35582;BMP180;21687;48.900;9.188;2023-08-07T01:57:40;98265.00;;;11.60
35582;BMP180;21687;48.900;9.188;2023-08-07T02:00:08;98272.00;;;11.50
35582;BMP180;21687;48.900;9.188;2023-08-07T02:02:35;98267.00;;;11.50
35582;BMP180;21687;48.900;9.188;2023-08-07T02:05:02;98274.00;;;11.50
35582;BMP180;21687;48.900;9.188;2023-08-07T02:07:29;98268.00;;;11.60
35582;BMP180;21687;48.900;9.188;2023-08-07T02:09:55;98269.00;;;11.60
35582;BMP180;21687;48.900;9.188;2023-08-07T02:12:22;98272.00;;;11.60
35582;BMP180;21687;48.900;9.188;2023-08-07T02:14:48;98265.00;;;11.60
35582;BMP180;21687;48.900;9.188;2023-08-07T02:17:14;98270.00;;;11.50
35582;BMP180;21687;48.900;9.188;2023-08-07T02:19:41;98283.00;;;11.40
35582;BMP180;21687;48.900;9.188;2023-08-07T02:22:07;98281.00;;;11.40
35582;BMP180;21687;48.900;9.188;2023-08-07T02:24:33;98283.00;;;11.30
35582;BMP180;21687;48.900;9.188;2023-08-07T02:27:00;98289.00;;;11.40
35582;BMP180;21687;48.900;9.188;2023-08-07T02:29:26;98291.00;;;11.40
35582;BMP180;21687;48.900;9.188;2023-08-07T02:31:52;98302.00;;;11.30
35582;BMP180;21687;48.900;9.188;2023-08-07T02:34:19;98281.00;;;11.30
35582;BMP180;21687;48.900;9.188;2023-08-07T02:36:45;98286.00;;;11.30
35582;BMP180;21687;48.900;9.188;2023-08-07T02:39:13;98289.00;;;11.30
35582;BMP180;21687;48.900;9.188;2023-08-07T02:41:39;98280.00;;;11.30
35582;BMP180;21687;48.900;9.188;2023-08-07T02:44:05;98286.00;;;11.30
35582;BMP180;21687;48.900;9.188;2023-08-07T02:46:32;98292.00;;;11.30
35582;BMP180;21687;48.900;9.188;2023-08-07T02:48:58;98290.00;;;11.30
35582;BMP180;21687;48.900;9.188;2023-08-07T02:51:24;98295.00;;;11.30
35582;BMP180;21687;48.900;9.188;2023-08-07T02:53:51;98295.00;;;11.20
35582;BMP180;21687;48.900;9.188;2023-08-07T02:56:17;98303.00;;;11.20
35582;BMP180;21687;48.900;9.188;2023-08-07T02:58:43;98294.00;;;11.20
35582;BMP180;21687;48.900;9.188;2023-08-07T03:01:10;98302.00;;;11.20
35582;BMP180;21687;48.900;9.188;2023-08-07T03:03:37;98299.00;;;11.10
35582;BMP180;21687;48.900;9.188;2023-08-07T03:06:04;98302.00;;;11.10
35582;BMP180;21687;48.900;9.188;2023-08-07T03:08:30;98296.00;;;11.10
35582;BMP180;21687;48.900;9.188;2023-08-07T03:10:57;98303.00;;;11.10
35582;BMP180;21687;48.900;9.188;2023-08-07T03:13:25;98297.00;;;11.20
35582;BMP180;21687;48.900;9.188;2023-08-07T03:16:02;98301.00;;;11.20
35582;BMP180;21687;48.900;9.188;2023-08-07T03:18:29;98297.00;;;11.20
35582;BMP180;21687;48.900;9.188;2023-08-07T03:20:56;98301.00;;;11.20
35582;BMP180;21687;48.900;9.188;2023-08-07T03:23:23;98311.00;;;11.20
35582;BMP180;21687;48.900;9.188;2023-08-07T03:25:50;98303.00;;;11.20
35582;BMP180;21687;48.900;9.188;2023-08-07T03:28:17;98312.00;;;11.20
35582;BMP180;21687;48.900;9.188;2023-08-07T03:30:43;98312.00;;;11.30
35582;BMP180;21687;48.900;9.188;2023-08-07T03:33:10;98302.00;;;11.20
35582;BMP180;21687;48.900;9.188;2023-08-07T03:35:37;98304.00;;;11.30
35582;BMP180;21687;48.900;9.188;2023-08-07T03:38:03;98305.00;;;11.30
35582;BMP180;21687;48.900;9.188;2023-08-07T03:40:30;98299.00;;;11.20
35582;BMP180;21687;48.900;9.188;2023-08-07T03:42:56;98306.00;;;11.30
35582;BMP180;21687;48.900;9.188;2023-08-07T03:45:22;98314.00;;;11.30
35582;BMP180;21687;48.900;9.188;2023-08-07T03:47:48;98318.00;;;11.30
35582;BMP180;21687;48.900;9.188;2023-08-07T03:50:15;98307.00;;;11.30
35582;BMP180;21687;48.900;9.188;2023-08-07T03:52:41;98312.00;;;11.30
35582;BMP180;21687;48.900;9.188;2023-08-07T03:55:09;98313.00;;;11.30
35582;BMP180;21687;48.900;9.188;2023-08-07T03:57:35;98319.00;;;11.20
35582;BMP180;21687;48.900;9.188;2023-08-07T04:00:01;98315.00;;;11.30
35582;BMP180;21687;48.900;9.188;2023-08-07T04:02:29;98305.00;;;11.30
35582;BMP180;21687;48.900;9.188;2023-08-07T04:04:56;98316.00;;;11.30
35582;BMP180;21687;48.900;9.188;2023-08-07T04:07:22;98318.00;;;11.30
35582;BMP180;21687;48.900;9.188;2023-08-07T04:09:48;98305.00;;;11.20
35582;BMP180;21687;48.900;9.188;2023-08-07T04:12:15;98317.00;;;11.20
35582;BMP180;21687;48.900;9.188;2023-08-07T04:14:41;98319.00;;;11.20
35582;BMP180;21687;48.900;9.188;2023-08-07T04:17:07;98321.00;;;11.20
35582;BMP180;21687;48.900;9.188;2023-08-07T04:19:33;98340.00;;;11.20
35582;BMP180;21687;48.900;9.188;2023-08-07T04:22:00;98329.00;;;11.30
35582;BMP180;21687;48.900;9.188;2023-08-07T04:24:26;98337.00;;;11.30
35582;BMP180;21687;48.900;9.188;2023-08-07T04:26:52;98322.00;;;11.30
35582;BMP180;21687;48.900;9.188;2023-08-07T04:29:19;98343.00;;;11.30
35582;BMP180;21687;48.900;9.188;2023-08-07T04:31:46;98341.00;;;11.40
35582;BMP180;21687;48.900;9.188;2023-08-07T04:34:12;98341.00;;;11.30
35582;BMP180;21687;48.900;9.188;2023-08-07T04:36:38;98332.00;;;11.40
35582;BMP180;21687;48.900;9.188;2023-08-07T04:39:04;98333.00;;;11.40
35582;BMP180;21687;48.900;9.188;2023-08-07T04:41:31;98340.00;;;11.40
35582;BMP180;21687;48.900;9.188;2023-08-07T04:43:57;98349.00;;;11.50
35582;BMP180;21687;48.900;9.188;2023-08-07T04:46:23;98346.00;;;11.50
35582;BMP180;21687;48.900;9.188;2023-08-07T04:48:49;98344.00;;;11.50
35582;BMP180;21687;48.900;9.188;2023-08-07T04:51:16;98346.00;;;11.50
35582;BMP180;21687;48.900;9.188;2023-08-07T04:53:43;98349.00;;;11.50
35582;BMP180;21687;48.900;9.188;2023-08-07T04:56:09;98349.00;;;11.50
35582;BMP180;21687;48.900;9.188;2023-08-07T04:58:35;98360.00;;;11.60
35582;BMP180;21687;48.900;9.188;2023-08-07T05:01:02;98358.00;;;11.60
35582;BMP180;21687;48.900;9.188;2023-08-07T05:03:31;98359.00;;;11.50
35582;BMP180;21687;48.900;9.188;2023-08-07T05:05:59;98355.00;;;11.50
35582;BMP180;21687;48.900;9.188;2023-08-07T05:08:26;98365.00;;;11.60
35582;BMP180;21687;48.900;9.188;2023-08-07T05:10:52;98363.00;;;11.60
35582;BMP180;21687;48.900;9.188;2023-08-07T05:13:21;98367.00;;;11.60
35582;BMP180;21687;48.900;9.188;2023-08-07T05:15:51;98365.00;;;11.60
35582;BMP180;21687;48.900;9.188;2023-08-07T05:18:18;98378.00;;;11.60
35582;BMP180;21687;48.900;9.188;2023-08-07T05:20:45;98365.00;;;11.60
35582;BMP180;21687;48.900;9.188;2023-08-07T05:23:14;98383.00;;;11.60
35582;BMP180;21687;48.900;9.188;2023-08-07T05:25:47;98377.00;;;11.60
35582;BMP180;21687;48.900;9.188;2023-08-07T05:28:16;98372.00;;;11.60
35582;BMP180;21687;48.900;9.188;2023-08-07T05:30:42;98371.00;;;11.60
35582;BMP180;21687;48.900;9.188;2023-08-07T05:33:08;98380.00;;;11.70
35582;BMP180;21687;48.900;9.188;2023-08-07T05:35:37;98377.00;;;11.60
35582;BMP180;21687;48.900;9.188;2023-08-07T05:38:03;98379.00;;;11.70
35582;BMP180;21687;48.900;9.188;2023-08-07T05:40:30;98374.00;;;11.70
35582;BMP180;21687;48.900;9.188;2023-08-07T05:42:56;98378.00;;;11.80
35582;BMP180;21687;48.900;9.188;2023-08-07T05:45:23;98388.00;;;11.80
35582;BMP180;21687;48.900;9.188;2023-08-07T05:50:22;98394.00;;;11.90
35582;BMP180;21687;48.900;9.188;2023-08-07T05:52:49;98391.00;;;11.90
35582;BMP180;21687;48.900;9.188;2023-08-07T05:55:15;98384.00;;;12.00
35582;BMP180;21687;48.900;9.188;2023-08-07T05:57:42;98409.00;;;12.00
35582;BMP180;21687;48.900;9.188;2023-08-07T06:00:09;98396.00;;;12.10
35582;BMP180;21687;48.900;9.188;2023-08-07T06:02:40;98396.00;;;12.30
35582;BMP180;21687;48.900;9.188;2023-08-07T06:05:06;98391.00;;;12.40
35582;BMP180;21687;48.900;9.188;2023-08-07T06:07:33;98388.00;;;12.60
35582;BMP180;21687;48.900;9.188;2023-08-07T06:10:00;98407.00;;;12.70
35582;BMP180;21687;48.900;9.188;2023-08-07T06:12:28;98403.00;;;12.80
35582;BMP180;21687;48.900;9.188;2023-08-07T06:14:58;98420.00;;;13.00
35582;BMP180;21687;48.900;9.188;2023-08-07T06:17:28;98413.00;;;13.20
35582;BMP180;21687;48.900;9.188;2023-08-07T06:19:54;98421.00;;;13.30
35582;BMP180;21687;48.900;9.188;2023-08-07T06:22:23;98417.00;;;13.40
35582;BMP180;21687;48.900;9.188;2023-08-07T06:24:49;98417.00;;;13.30
35582;BMP180;21687;48.900;9.188;2023-08-07T06:27:17;98417.00;;;13.30
35582;BMP180;21687;48.900;9.188;2023-08-07T06:29:45;98411.00;;;13.20
35582;BMP180;21687;48.900;9.188;2023-08-07T06:32:12;98417.00;;;13.40
35582;BMP180;21687;48.900;9.188;2023-08-07T06:34:38;98416.00;;;14.10
35582;BMP180;21687;48.900;9.188;2023-08-07T06:37:05;98410.00;;;14.40
35582;BMP180;21687;48.900;9.188;2023-08-07T06:39:32;98413.00;;;14.20
35582;BMP180;21687;48.900;9.188;2023-08-07T06:41:59;98415.00;;;13.90
35582;BMP180;21687;48.900;9.188;2023-08-07T06:44:27;98417.00;;;13.60
35582;BMP180;21687;48.900;9.188;2023-08-07T06:46:56;98415.00;;;13.40
35582;BMP180;21687;48.900;9.188;2023-08-07T06:49:22;98418.00;;;13.40
35582;BMP180;21687;48.900;9.188;2023-08-07T06:51:50;98423.00;;;13.60
35582;BMP180;21687;48.900;9.188;2023-08-07T06:54:16;98427.00;;;13.60
35582;BMP180;21687;48.900;9.188;2023-08-07T06:56:46;98431.00;;;13.50
35582;BMP180;21687;48.900;9.188;2023-08-07T06:59:12;98439.00;;;13.60
35582;BMP180;21687;48.900;9.188;2023-08-07T07:01:42;98445.00;;;13.70
35582;BMP180;21687;48.900;9.188;2023-08-07T07:04:11;98446.00;;;13.80
35582;BMP180;21687;48.900;9.188;2023-08-07T07:06:38;98439.00;;;13.80
35582;BMP180;21687;48.900;9.188;2023-08-07T07:09:04;98439.00;;;13.80
35582;BMP180;21687;48.900;9.188;2023-08-07T07:11:35;98445.00;;;14.30
35582;BMP180;21687;48.900;9.188;2023-08-07T07:14:02;98448.00;;;14.50
35582;BMP180;21687;48.900;9.188;2023-08-07T07:16:28;98436.00;;;14.40
35582;BMP180;21687;48.900;9.188;2023-08-07T07:18:55;98439.00;;;14.40
35582;BMP180;21687;48.900;9.188;2023-08-07T07:21:22;98452.00;;;14.30
35582;BMP180;21687;48.900;9.188;2023-08-07T07:23:48;98437.00;;;14.00
35582;BMP180;21687;48.900;9.188;2023-08-07T07:26:14;98447.00;;;13.80
35582;BMP180;21687;48.900;9.188;2023-08-07T07:28:41;98461.00;;;13.60
35582;BMP180;21687;48.900;9.188;2023-08-07T07:31:07;98462.00;;;13.50
35582;BMP180;21687;48.900;9.188;2023-08-07T07:33:37;98462.00;;;13.60
35582;BMP180;21687;48.900;9.188;2023-08-07T07:36:05;98459.00;;;13.60
35582;BMP180;21687;48.900;9.188;2023-08-07T07:38:32;98463.00;;;13.80
35582;BMP180;21687;48.900;9.188;2023-08-07T07:40:59;98471.00;;;13.90
35582;BMP180;21687;48.900;9.188;2023-08-07T07:43:25;98464.00;;;13.90
35582;BMP180;21687;48.900;9.188;2023-08-07T07:45:52;98469.00;;;14.10
35582;BMP180;21687;48.900;9.188;2023-08-07T07:48:18;98477.00;;;14.20
35582;BMP180;21687;48.900;9.188;2023-08-07T07:50:44;98464.00;;;14.30
35582;BMP180;21687;48.900;9.188;2023-08-07T07:53:11;98470.00;;;14.50
35582;BMP180;21687;48.900;9.188;2023-08-07T07:55:37;98475.00;;;14.60
35582;BMP180;21687;48.900;9.188;2023-08-07T07:58:04;98472.00;;;14.60
35582;BMP180;21687;48.900;9.188;2023-08-07T08:00:31;98471.00;;;14.50
35582;BMP180;21687;48.900;9.188;2023-08-07T08:02:57;98474.00;;;14.60
35582;BMP180;21687;48.900;9.188;2023-08-07T08:05:23;98482.00;;;14.70
35582;BMP180;21687;48.900;9.188;2023-08-07T08:07:50;98485.00;;;14.80
35582;BMP180;21687;48.900;9.188;2023-08-07T08:10:16;98503.00;;;14.70
35582;BMP180;21687;48.900;9.188;2023-08-07T08:12:42;98484.00;;;14.40
35582;BMP180;21687;48.900;9.188;2023-08-07T08:15:09;98497.00;;;14.30
35582;BMP180;21687;48.900;9.188;2023-08-07T08:17:35;98499.00;;;14.20
35582;BMP180;21687;48.900;9.188;2023-08-07T08:20:01;98501.00;;;14.20
35582;BMP180;21687;48.900;9.188;2023-08-07T08:22:28;98500.00;;;14.10
35582;BMP180;21687;48.900;9.188;2023-08-07T08:24:54;98510.00;;;14.20
35582;BMP180;21687;48.900;9.188;2023-08-07T08:27:21;98504.00;;;14.40
35582;BMP180;21687;48.900;9.188;2023-08-07T08:29:48;98507.00;;;14.40
35582;BMP180;21687;48.900;9.188;2023-08-07T08:32:14;98506.00;;;14.60
35582;BMP180;21687;48.900;9.188;2023-08-07T08:34:40;98512.00;;;14.80
35582;BMP180;21687;48.900;9.188;2023-08-07T08:37:07;98492.00;;;14.80
35582;BMP180;21687;48.900;9.188;2023-08-07T08:39:34;98502.00;;;14.90
35582;BMP180;21687;48.900;9.188;2023-08-07T08:42:00;98498.00;;;15.10
35582;BMP180;21687;48.900;9.188;2023-08-07T08:44:26;98513.00;;;15.20
35582;BMP180;21687;48.900;9.188;2023-08-07T08:46:56;98509.00;;;15.20
35582;BMP180;21687;48.900;9.188;2023-08-07T08:49:30;98514.00;;;15.40
35582;BMP180;21687;48.900;9.188;2023-08-07T08:51:58;98515.00;;;15.60
35582;BMP180;21687;48.900;9.188;2023-08-07T08:54:26;98510.00;;;15.70
35582;BMP180;21687;48.900;9.188;2023-08-07T08:56:52;98524.00;;;15.80
35582;BMP180;21687;48.900;9.188;2023-08-07T08:59:21;98518.00;;;16.00
35582;BMP180;21687;48.900;9.188;2023-08-07T09:01:49;98537.00;;;15.80
35582;BMP180;21687;48.900;9.188;2023-08-07T09:04:16;98523.00;;;15.70
35582;BMP180;21687;48.900;9.188;2023-08-07T09:06:44;98524.00;;;15.70
35582;BMP180;21687;48.900;9.188;2023-08-07T09:09:13;98526.00;;;15.50
35582;BMP180;21687;48.900;9.188;2023-08-07T09:11:41;98538.00;;;15.80
35582;BMP180;21687;48.900;9.188;2023-08-07T09:14:08;98536.00;;;15.60
35582;BMP180;21687;48.900;9.188;2023-08-07T09:16:36;98542.00;;;15.80
35582;BMP180;21687;48.900;9.188;2023-08-07T09:19:03;98546.00;;;15.70
35582;BMP180;21687;48.900;9.188;2023-08-07T09:21:29;98549.00;;;15.70
35582;BMP180;21687;48.900;9.188;2023-08-07T09:23:55;98545.00;;;15.80
35582;BMP180;21687;48.900;9.188;2023-08-07T09:26:22;98547.00;;;15.80
35582;BMP180;21687;48.900;9.188;2023-08-07T09:28:52;98544.00;;;16.10
35582;BMP180;21687;48.900;9.188;2023-08-07T09:31:23;98555.00;;;16.20
35582;BMP180;21687;48.900;9.188;2023-08-07T09:33:52;98564.00;;;15.90
35582;BMP180;21687;48.900;9.188;2023-08-07T09:36:19;98558.00;;;15.90
35582;BMP180;21687;48.900;9.188;2023-08-07T09:38:50;98553.00;;;15.90
35582;BMP180;21687;48.900;9.188;2023-08-07T09:41:18;98567.00;;;16.20
35582;BMP180;21687;48.900;9.188;2023-08-07T09:43:45;98560.00;;;16.40
35582;BMP180;21687;48.900;9.188;2023-08-07T09:46:12;98562.00;;;16.60
35582;BMP180;21687;48.900;9.188;2023-08-07T09:48:43;98562.00;;;16.80
35582;BMP180;21687;48.900;9.188;2023-08-07T09:51:10;98566.00;;;17.10
35582;BMP180;21687;48.900;9.188;2023-08-07T09:53:36;98570.00;;;16.90
35582;BMP180;21687;48.900;9.188;2023-08-07T09:56:03;98565.00;;;16.80
35582;BMP180;21687;48.900;9.188;2023-08-07T09:58:30;98572.00;;;17.10
35582;BMP180;21687;48.900;9.188;2023-08-07T10:01:05;98564.00;;;17.40
35582;BMP180;21687;48.900;9.188;2023-08-07T10:03:33;98579.00;;;18.30
35582;BMP180;21687;48.900;9.188;2023-08-07T10:06:00;98560.00;;;18.60
35582;BMP180;21687;48.900;9.188;2023-08-07T10:08:27;98567.00;;;18.70
35582;BMP180;21687;48.900;9.188;2023-08-07T10:10:54;98581.00;;;19.00
35582;BMP180;21687;48.900;9.188;2023-08-07T10:13:22;98562.00;;;19.00
35582;BMP180;21687;48.900;9.188;2023-08-07T10:15:49;98563.00;;;18.70
35582;BMP180;21687;48.900;9.188;2023-08-07T10:18:15;98567.00;;;18.60
35582;BMP180;21687;48.900;9.188;2023-08-07T10:20:42;98562.00;;;18.10
35582;BMP180;21687;48.900;9.188;2023-08-07T10:23:10;98568.00;;;17.80
35582;BMP180;21687;48.900;9.188;2023-08-07T10:25:42;98578.00;;;17.50
35582;BMP180;21687;48.900;9.188;2023-08-07T10:28:12;98580.00;;;17.50
35582;BMP180;21687;48.900;9.188;2023-08-07T10:30:40;98581.00;;;17.20
35582;BMP180;21687;48.900;9.188;2023-08-07T10:33:12;98576.00;;;16.90
35582;BMP180;21687;48.900;9.188;2023-08-07T10:35:45;98578.00;;;16.50
35582;BMP180;21687;48.900;9.188;2023-08-07T10:38:14;98586.00;;;16.30
35582;BMP180;21687;48.900;9.188;2023-08-07T10:40:59;98589.00;;;16.20
35582;BMP180;21687;48.900;9.188;2023-08-07T10:43:30;98585.00;;;16.40
35582;BMP180;21687;48.900;9.188;2023-08-07T10:46:08;98585.00;;;16.70
35582;BMP180;21687;48.900;9.188;2023-08-07T10:51:05;98579.00;;;16.50
35582;BMP180;21687;48.900;9.188;2023-08-07T10:53:58;98591.00;;;16.50
35582;BMP180;21687;48.900;9.188;2023-08-07T10:56:35;98577.00;;;16.90
35582;BMP180;21687;48.900;9.188;2023-08-07T10:59:10;98584.00;;;16.70
35582;BMP180;21687;48.900;9.188;2023-08-07T11:01:43;98578.00;;;16.30
35582;BMP180;21687;48.900;9.188;2023-08-07T11:04:12;98591.00;;;16.20
35582;BMP180;21687;48.900;9.188;2023-08-07T11:06:39;98591.00;;;16.00
35582;BMP180;21687;48.900;9.188;2023-08-07T11:09:08;98603.00;;;15.70
35582;BMP180;21687;48.900;9.188;2023-08-07T11:11:42;98604.00;;;15.70
35582;BMP180;21687;48.900;9.188;2023-08-07T11:14:10;98599.00;;;15.80
35582;BMP180;21687;48.900;9.188;2023-08-07T11:16:37;98597.00;;;15.80
35582;BMP180;21687;48.900;9.188;2023-08-07T11:19:04;98599.00;;;16.00
35582;BMP180;21687;48.900;9.188;2023-08-07T11:21:34;98596.00;;;15.90
35582;BMP180;21687;48.900;9.188;2023-08-07T11:24:02;98591.00;;;15.90
35582;BMP180;21687;48.900;9.188;2023-08-07T11:26:28;98586.00;;;15.90
35582;BMP180;21687;48.900;9.188;2023-08-07T11:28:55;98599.00;;;16.00
35582;BMP180;21687;48.900;9.188;2023-08-07T11:31:22;98597.00;;;16.10
35582;BMP180;21687;48.900;9.188;2023-08-07T11:33:57;98597.00;;;16.20
35582;BMP180;21687;48.900;9.188;2023-08-07T11:36:24;98601.00;;;16.40
35582;BMP180;21687;48.900;9.188;2023-08-07T11:38:51;98582.00;;;16.30
35582;BMP180;21687;48.900;9.188;2023-08-07T11:41:18;98599.00;;;16.40
35582;BMP180;21687;48.900;9.188;2023-08-07T11:43:45;98596.00;;;16.30
35582;BMP180;21687;48.900;9.188;2023-08-07T11:46:13;98599.00;;;16.20
35582;BMP180;21687;48.900;9.188;2023-08-07T11:48:41;98606.00;;;16.20
35582;BMP180;21687;48.900;9.188;2023-08-07T11:51:08;98599.00;;;16.10
35582;BMP180;21687;48.900;9.188;2023-08-07T11:53:37;98611.00;;;16.00
35582;BMP180;21687;48.900;9.188;2023-08-07T11:56:06;98602.00;;;16.00
35582;BMP180;21687;48.900;9.188;2023-08-07T11:58:42;98609.00;;;16.10
35582;BMP180;21687;48.900;9.188;2023-08-07T12:01:16;98612.00;;;16.30
35582;BMP180;21687;48.900;9.188;2023-08-07T12:04:12;98615.00;;;16.60
35582;BMP180;21687;48.900;9.188;2023-08-07T12:06:41;98622.00;;;16.60
35582;BMP180;21687;48.900;9.188;2023-08-07T12:09:18;98627.00;;;16.80
35582;BMP180;21687;48.900;9.188;2023-08-07T12:11:44;98622.00;;;16.90
35582;BMP180;21687;48.900;9.188;2023-08-07T12:14:14;98619.00;;;17.00
35582;BMP180;21687;48.900;9.188;2023-08-07T12:16:44;98621.00;;;17.50
35582;BMP180;21687;48.900;9.188;2023-08-07T12:19:13;98622.00;;;17.50
35582;BMP180;21687;48.900;9.188;2023-08-07T12:21:41;98640.00;;;17.70
35582;BMP180;21687;48.900;9.188;2023-08-07T12:24:07;98624.00;;;17.70
35582;BMP180;21687;48.900;9.188;2023-08-07T12:26:34;98634.00;;;17.60
35582;BMP180;21687;48.900;9.188;2023-08-07T12:29:00;98632.00;;;17.70
35582;BMP180;21687;48.900;9.188;2023-08-07T12:31:26;98638.00;;;17.80
35582;BMP180;21687;48.900;9.188;2023-08-07T12:33:52;98642.00;;;17.60
35582;BMP180;21687;48.900;9.188;2023-08-07T12:36:19;98631.00;;;17.50
35582;BMP180;21687;48.900;9.188;2023-08-07T12:38:45;98633.00;;;17.70
35582;BMP180;21687;48.900;9.188;2023-08-07T12:41:11;98632.00;;;18.00
35582;BMP180;21687;48.900;9.188;2023-08-07T12:43:38;98626.00;;;18.10
35582;BMP180;21687;48.900;9.188;2023-08-07T12:46:04;98631.00;;;18.40
35582;BMP180;21687;48.900;9.188;2023-08-07T12:48:30;98642.00;;;18.60
35582;BMP180;21687;48.900;9.188;2023-08-07T12:50:57;98634.00;;;18.40
35582;BMP180;21687;48.900;9.188;2023-08-07T12:53:23;98638.00;;;18.50
35582;BMP180;21687;48.900;9.188;2023-08-07T12:55:49;98636.00;;;18.70
35582;BMP180;21687;48.900;9.188;2023-08-07T12:58:16;98642.00;;;18.40
35582;BMP180;21687;48.900;9.188;2023-08-07T13:00:44;98637.00;;;18.20
35582;BMP180;21687;48.900;9.188;2023-08-07T13:03:11;98643.00;;;18.00
35582;BMP180;21687;48.900;9.188;2023-08-07T13:05:37;98632.00;;;18.10
35582;BMP180;21687;48.900;9.188;2023-08-07T13:08:03;98641.00;;;18.10
35582;BMP180;21687;48.900;9.188;2023-08-07T13:10:30;98639.00;;;17.80
35582;BMP180;21687;48.900;9.188;2023-08-07T13:12:57;98636.00;;;17.40
35582;BMP180;21687;48.900;9.188;2023-08-07T13:15:23;98636.00;;;17.30
35582;BMP180;21687;48.900;9.188;2023-08-07T13:17:51;98642.00;;;17.20
35582;BMP180;21687;48.900;9.188;2023-08-07T13:20:17;98636.00;;;17.20
35582;BMP180;21687;48.900;9.188;2023-08-07T13:22:44;98636.00;;;17.30
35582;BMP180;21687;48.900;9.188;2023-08-07T13:25:12;98620.00;;;17.40
35582;BMP180;21687;48.900;9.188;2023-08-07T13:27:39;98633.00;;;17.70
35582;BMP180;21687;48.900;9.188;2023-08-07T13:30:06;98618.00;;;18.20
35582;BMP180;21687;48.900;9.188;2023-08-07T13:32:33;98622.00;;;18.20
35582;BMP180;21687;48.900;9.188;2023-08-07T13:35:00;98619.00;;;18.30
35582;BMP180;21687;48.900;9.188;2023-08-07T13:37:26;98608.00;;;18.50
35582;BMP180;21687;48.900;9.188;2023-08-07T13:39:52;98614.00;;;18.50
35582;BMP180;21687;48.900;9.188;2023-08-07T13:42:23;98616.00;;;18.90
35582;BMP180;21687;48.900;9.188;2023-08-07T13:44:49;98629.00;;;18.90
35582;BMP180;21687;48.900;9.188;2023-08-07T13:47:17;98613.00;;;18.80
35582;BMP180;21687;48.900;9.188;2023-08-07T13:49:44;98625.00;;;18.40
35582;BMP180;21687;48.900;9.188;2023-08-07T13:52:10;98623.00;;;18.30
35582;BMP180;21687;48.900;9.188;2023-08-07T13:54:36;98615.00;;;18.10
35582;BMP180;21687;48.900;9.188;2023-08-07T13:57:03;98619.00;;;18.10
35582;BMP180;21687;48.900;9.188;2023-08-07T13:59:29;98633.00;;;18.40
35582;BMP180;21687;48.900;9.188;2023-08-07T14:01:56;98625.00;;;18.50
35582;BMP180;21687;48.900;9.188;2023-08-07T14:04:22;98603.00;;;18.50
35582;BMP180;21687;48.900;9.188;2023-08-07T14:06:48;98618.00;;;18.50
35582;BMP180;21687;48.900;9.188;2023-08-07T14:09:15;98624.00;;;18.70
35582;BMP180;21687;48.900;9.188;2023-08-07T14:11:41;98624.00;;;18.90
35582;BMP180;21687;48.900;9.188;2023-08-07T14:14:08;98629.00;;;19.10
35582;BMP180;21687;48.900;9.188;2023-08-07T14:16:34;98615.00;;;19.30
35582;BMP180;21687;48.900;9.188;2023-08-07T14:19:00;98617.00;;;19.30
35582;BMP180;21687;48.900;9.188;2023-08-07T14:21:27;98620.00;;;19.30
35582;BMP180;21687;48.900;9.188;2023-08-07T14:23:53;98621.00;;;18.70
35582;BMP180;21687;48.900;9.188;2023-08-07T14:26:20;98634.00;;;18.70